sensor_id;sensor_type;location;lat;lon;timestamp;pressure;altitude;pressure_sealevel;temperature;humidity
53340;BME280;46212;50.258;19.062;2023-03-03T00:02:01;98766.50;;;-1.71;87.14
53340;BME280;46212;50.258;19.062;2023-03-03T00:04:27;98774.97;;;-1.76;86.79
53340;BME280;46212;50.258;19.062;2023-03-03T00:06:52;98772.03;;;-1.60;86.90
53340;BME280;46212;50.258;19.062;2023-03-03T00:09:17;98787.41;;;-1.34;86.79
53340;BME280;46212;50.258;19.062;2023-03-03T00:11:44;98793.66;;;-1.30;86.75
53340;BME280;46212;50.258;19.062;2023-03-03T00:14:30;98789.44;;;-1.24;86.84
53340;BME280;46212;50.258;19.062;2023-03-03T00:16:59;98762.59;;;-1.36;86.92
53340;BME280;46212;50.258;19.062;2023-03-03T00:19:25;98782.47;;;-1.25;86.79
53340;BME280;46212;50.258;19.062;2023-03-03T00:21:51;98780.09;;;-1.27;86.52
53340;BME280;46212;50.258;19.062;2023-03-03T00:26:51;98778.06;;;-1.74;85.83
53340;BME280;46212;50.258;19.062;2023-03-03T00:29:29;98772.47;;;-1.91;86.41
53340;BME280;46212;50.258;19.062;2023-03-03T00:32:22;98777.47;;;-1.93;86.76
53340;BME280;46212;50.258;19.062;2023-03-03T00:34:47;98768.50;;;-2.01;86.83
53340;BME280;46212;50.258;19.062;2023-03-03T00:37:33;98750.75;;;-2.28;89.04
53340;BME280;46212;50.258;19.062;2023-03-03T00:42:49;98776.59;;;-2.01;89.71
53340;BME280;46212;50.258;19.062;2023-03-03T00:47:51;98772.13;;;-1.86;88.56
53340;BME280;46212;50.258;19.062;2023-03-03T00:53:10;98768.44;;;-1.71;88.11
53340;BME280;46212;50.258;19.062;2023-03-03T00:55:35;98765.25;;;-1.80;87.61
53340;BME280;46212;50.258;19.062;2023-03-03T00:58:01;98765.38;;;-1.70;87.46
53340;BME280;46212;50.258;19.062;2023-03-03T01:00:27;98767.28;;;-1.70;87.63
53340;BME280;46212;50.258;19.062;2023-03-03T01:02:52;98745.84;;;-1.86;87.40
53340;BME280;46212;50.258;19.062;2023-03-03T01:05:18;98767.63;;;-1.75;86.93
53340;BME280;46212;50.258;19.062;2023-03-03T01:07:44;98755.78;;;-1.97;86.04
53340;BME280;46212;50.258;19.062;2023-03-03T01:10:10;98756.38;;;-2.10;85.91
53340;BME280;46212;50.258;19.062;2023-03-03T01:12:36;98769.47;;;-2.16;86.77
53340;BME280;46212;50.258;19.062;2023-03-03T01:15:07;98761.31;;;-2.20;87.44
53340;BME280;46212;50.258;19.062;2023-03-03T01:17:33;98758.13;;;-2.25;87.88
53340;BME280;46212;50.258;19.062;2023-03-03T01:19:59;98727.50;;;-2.33;87.90
53340;BME280;46212;50.258;19.062;2023-03-03T01:22:25;98758.69;;;-2.12;87.32
53340;BME280;46212;50.258;19.062;2023-03-03T01:24:50;98748.56;;;-2.19;88.15
53340;BME280;46212;50.258;19.062;2023-03-03T01:27:16;98750.19;;;-2.11;87.52
53340;BME280;46212;50.258;19.062;2023-03-03T01:29:41;98740.16;;;-2.10;87.52
53340;BME280;46212;50.258;19.062;2023-03-03T01:32:07;98739.19;;;-2.25;87.69
53340;BME280;46212;50.258;19.062;2023-03-03T01:34:32;98731.75;;;-2.35;87.67
53340;BME280;46212;50.258;19.062;2023-03-03T01:36:58;98736.72;;;-2.37;87.88
53340;BME280;46212;50.258;19.062;2023-03-03T01:39:25;98734.84;;;-2.33;87.63
53340;BME280;46212;50.258;19.062;2023-03-03T01:41:50;98717.34;;;-2.43;87.79
53340;BME280;46212;50.258;19.062;2023-03-03T01:44:16;98703.78;;;-2.46;87.41
53340;BME280;46212;50.258;19.062;2023-03-03T01:46:54;98712.38;;;-2.37;87.09
53340;BME280;46212;50.258;19.062;2023-03-03T01:49:26;98715.03;;;-2.41;87.03
53340;BME280;46212;50.258;19.062;2023-03-03T01:52:02;98691.63;;;-2.59;87.44
53340;BME280;46212;50.258;19.062;2023-03-03T01:54:34;98711.16;;;-2.43;87.81
53340;BME280;46212;50.258;19.062;2023-03-03T01:57:05;98699.69;;;-2.63;88.40
53340;BME280;46212;50.258;19.062;2023-03-03T01:59:35;98702.94;;;-2.50;89.11
53340;BME280;46212;50.258;19.062;2023-03-03T02:02:03;98714.28;;;-2.41;89.43
53340;BME280;46212;50.258;19.062;2023-03-03T02:04:29;98717.09;;;-2.31;89.33
53340;BME280;46212;50.258;19.062;2023-03-03T02:06:58;98687.94;;;-2.48;88.82
53340;BME280;46212;50.258;19.062;2023-03-03T02:10:17;98713.53;;;-2.38;88.42
53340;BME280;46212;50.258;19.062;2023-03-03T02:12:42;98714.28;;;-2.41;88.40
53340;BME280;46212;50.258;19.062;2023-03-03T02:15:34;98721.19;;;-2.44;88.57
53340;BME280;46212;50.258;19.062;2023-03-03T02:18:11;98725.22;;;-2.60;88.72
53340;BME280;46212;50.258;19.062;2023-03-03T02:23:30;98698.59;;;-2.58;89.04
53340;BME280;46212;50.258;19.062;2023-03-03T02:28:29;98726.50;;;-2.51;88.50
53340;BME280;46212;50.258;19.062;2023-03-03T02:30:56;98714.81;;;-2.58;88.29
53340;BME280;46212;50.258;19.062;2023-03-03T02:33:23;98732.69;;;-2.50;88.32
53340;BME280;46212;50.258;19.062;2023-03-03T02:35:50;98726.72;;;-2.33;88.07
53340;BME280;46212;50.258;19.062;2023-03-03T02:38:23;98718.19;;;-2.65;89.29
53340;BME280;46212;50.258;19.062;2023-03-03T02:44:02;98744.78;;;-2.71;90.04
53340;BME280;46212;50.258;19.062;2023-03-03T02:46:34;98751.81;;;-2.62;90.04
53340;BME280;46212;50.258;19.062;2023-03-03T02:49:02;98739.53;;;-2.56;89.13
53340;BME280;46212;50.258;19.062;2023-03-03T02:51:27;98715.88;;;-2.93;90.47
53340;BME280;46212;50.258;19.062;2023-03-03T02:53:53;98737.75;;;-2.75;90.32
53340;BME280;46212;50.258;19.062;2023-03-03T02:56:18;98732.59;;;-2.84;91.19
53340;BME280;46212;50.258;19.062;2023-03-03T02:58:44;98715.94;;;-2.89;92.11
53340;BME280;46212;50.258;19.062;2023-03-03T03:01:09;98730.81;;;-2.73;92.71
53340;BME280;46212;50.258;19.062;2023-03-03T03:03:35;98728.56;;;-2.71;92.87
53340;BME280;46212;50.258;19.062;2023-03-03T03:06:00;98727.09;;;-2.91;93.90
53340;BME280;46212;50.258;19.062;2023-03-03T03:08:26;98731.03;;;-2.85;93.70
53340;BME280;46212;50.258;19.062;2023-03-03T03:10:52;98722.41;;;-2.67;93.69
53340;BME280;46212;50.258;19.062;2023-03-03T03:13:17;98718.94;;;-2.68;92.70
53340;BME280;46212;50.258;19.062;2023-03-03T03:15:46;98730.06;;;-2.73;91.77
53340;BME280;46212;50.258;19.062;2023-03-03T03:18:12;98718.88;;;-2.72;91.42
53340;BME280;46212;50.258;19.062;2023-03-03T03:20:38;98726.13;;;-2.79;90.78
53340;BME280;46212;50.258;19.062;2023-03-03T03:23:04;98722.47;;;-2.90;90.31
53340;BME280;46212;50.258;19.062;2023-03-03T03:25:30;98724.91;;;-2.82;89.71
53340;BME280;46212;50.258;19.062;2023-03-03T03:27:55;98722.84;;;-2.92;89.50
53340;BME280;46212;50.258;19.062;2023-03-03T03:30:21;98718.06;;;-3.02;89.48
53340;BME280;46212;50.258;19.062;2023-03-03T03:32:46;98722.41;;;-2.94;89.14
53340;BME280;46212;50.258;19.062;2023-03-03T03:35:12;98721.53;;;-3.01;89.00
53340;BME280;46212;50.258;19.062;2023-03-03T03:37:38;98720.75;;;-3.02;88.67
53340;BME280;46212;50.258;19.062;2023-03-03T03:40:04;98721.13;;;-2.77;88.75
53340;BME280;46212;50.258;19.062;2023-03-03T03:42:31;98704.28;;;-2.67;88.00
53340;BME280;46212;50.258;19.062;2023-03-03T03:44:56;98709.47;;;-2.55;87.01
53340;BME280;46212;50.258;19.062;2023-03-03T03:47:21;98720.78;;;-2.72;87.09
53340;BME280;46212;50.258;19.062;2023-03-03T03:49:47;98719.81;;;-2.87;87.04
53340;BME280;46212;50.258;19.062;2023-03-03T03:52:12;98707.25;;;-3.02;87.55
53340;BME280;46212;50.258;19.062;2023-03-03T03:54:38;98700.09;;;-3.13;87.52
53340;BME280;46212;50.258;19.062;2023-03-03T03:57:04;98719.44;;;-3.11;87.37
53340;BME280;46212;50.258;19.062;2023-03-03T03:59:29;98713.16;;;-3.19;87.33
53340;BME280;46212;50.258;19.062;2023-03-03T04:01:55;98713.25;;;-3.12;87.44
53340;BME280;46212;50.258;19.062;2023-03-03T04:04:22;98722.09;;;-3.15;88.03
53340;BME280;46212;50.258;19.062;2023-03-03T04:06:47;98723.91;;;-3.23;88.39
53340;BME280;46212;50.258;19.062;2023-03-03T04:09:13;98728.09;;;-3.25;88.40
53340;BME280;46212;50.258;19.062;2023-03-03T04:11:39;98715.31;;;-3.28;87.87
53340;BME280;46212;50.258;19.062;2023-03-03T04:14:04;98726.91;;;-3.28;88.16
53340;BME280;46212;50.258;19.062;2023-03-03T04:16:30;98734.63;;;-3.26;88.69
53340;BME280;46212;50.258;19.062;2023-03-03T04:18:55;98745.88;;;-3.24;88.98
53340;BME280;46212;50.258;19.062;2023-03-03T04:21:21;98724.69;;;-3.22;88.83
53340;BME280;46212;50.258;19.062;2023-03-03T04:23:46;98735.88;;;-3.20;89.59
53340;BME280;46212;50.258;19.062;2023-03-03T04:26:11;98735.41;;;-3.26;89.28
53340;BME280;46212;50.258;19.062;2023-03-03T04:28:37;98734.16;;;-3.32;89.28
53340;BME280;46212;50.258;19.062;2023-03-03T04:31:03;98729.00;;;-3.40;89.69
53340;BME280;46212;50.258;19.062;2023-03-03T04:33:28;98718.09;;;-3.47;89.27
53340;BME280;46212;50.258;19.062;2023-03-03T04:35:54;98725.59;;;-3.37;89.26
53340;BME280;46212;50.258;19.062;2023-03-03T04:38:19;98727.63;;;-3.31;89.45
53340;BME280;46212;50.258;19.062;2023-03-03T04:40:45;98731.59;;;-3.25;89.58
53340;BME280;46212;50.258;19.062;2023-03-03T04:43:11;98723.84;;;-3.26;89.91
53340;BME280;46212;50.258;19.062;2023-03-03T04:45:37;98728.03;;;-3.29;90.24
53340;BME280;46212;50.258;19.062;2023-03-03T04:48:03;98721.50;;;-3.28;90.76
53340;BME280;46212;50.258;19.062;2023-03-03T04:50:28;98720.66;;;-3.32;90.40
53340;BME280;46212;50.258;19.062;2023-03-03T04:52:53;98726.84;;;-3.31;89.99
53340;BME280;46212;50.258;19.062;2023-03-03T04:55:19;98716.19;;;-3.47;90.74
53340;BME280;46212;50.258;19.062;2023-03-03T04:57:44;98723.97;;;-3.42;90.77
53340;BME280;46212;50.258;19.062;2023-03-03T05:00:11;98696.84;;;-3.49;90.94
53340;BME280;46212;50.258;19.062;2023-03-03T05:02:40;98703.59;;;-3.62;91.58
53340;BME280;46212;50.258;19.062;2023-03-03T05:05:06;98683.97;;;-3.82;93.10
53340;BME280;46212;50.258;19.062;2023-03-03T05:07:34;98714.31;;;-3.65;94.05
53340;BME280;46212;50.258;19.062;2023-03-03T05:09:59;98705.72;;;-3.48;94.01
53340;BME280;46212;50.258;19.062;2023-03-03T05:12:24;98725.19;;;-3.13;93.28
53340;BME280;46212;50.258;19.062;2023-03-03T05:14:51;98723.66;;;-2.88;91.78
53340;BME280;46212;50.258;19.062;2023-03-03T05:17:16;98732.97;;;-2.85;89.60
53340;BME280;46212;50.258;19.062;2023-03-03T05:19:41;98751.56;;;-2.80;89.08
53340;BME280;46212;50.258;19.062;2023-03-03T05:22:07;98760.97;;;-2.44;88.16
53340;BME280;46212;50.258;19.062;2023-03-03T05:24:32;98739.31;;;-2.74;88.14
53340;BME280;46212;50.258;19.062;2023-03-03T05:26:58;98764.03;;;-2.72;88.89
53340;BME280;46212;50.258;19.062;2023-03-03T05:29:23;98730.53;;;-3.16;90.11
53340;BME280;46212;50.258;19.062;2023-03-03T05:31:49;98739.00;;;-2.95;90.10
53340;BME280;46212;50.258;19.062;2023-03-03T05:34:14;98761.50;;;-2.88;89.98
53340;BME280;46212;50.258;19.062;2023-03-03T05:36:40;98750.22;;;-2.67;90.30
53340;BME280;46212;50.258;19.062;2023-03-03T05:39:05;98769.41;;;-2.20;89.61
53340;BME280;46212;50.258;19.062;2023-03-03T05:41:31;98727.81;;;-2.08;88.33
53340;BME280;46212;50.258;19.062;2023-03-03T05:44:01;98766.44;;;-1.78;87.45
53340;BME280;46212;50.258;19.062;2023-03-03T05:46:26;98765.22;;;-1.47;86.53
53340;BME280;46212;50.258;19.062;2023-03-03T05:48:52;98770.13;;;-1.59;86.62
53340;BME280;46212;50.258;19.062;2023-03-03T05:51:17;98742.31;;;-1.56;86.87
53340;BME280;46212;50.258;19.062;2023-03-03T05:53:42;98767.25;;;-1.37;86.18
53340;BME280;46212;50.258;19.062;2023-03-03T05:56:08;98764.50;;;-1.40;85.69
53340;BME280;46212;50.258;19.062;2023-03-03T05:58:33;98771.97;;;-1.30;86.06
53340;BME280;46212;50.258;19.062;2023-03-03T06:00:59;98764.78;;;-1.12;84.82
53340;BME280;46212;50.258;19.062;2023-03-03T06:03:24;98785.38;;;-1.00;84.31
53340;BME280;46212;50.258;19.062;2023-03-03T06:05:50;98781.50;;;-1.43;85.88
53340;BME280;46212;50.258;19.062;2023-03-03T06:08:15;98787.50;;;-1.61;87.14
53340;BME280;46212;50.258;19.062;2023-03-03T06:10:42;98788.22;;;-1.30;87.40
53340;BME280;46212;50.258;19.062;2023-03-03T06:13:10;98795.66;;;-1.20;86.53
53340;BME280;46212;50.258;19.062;2023-03-03T06:15:35;98792.06;;;-1.31;86.54
53340;BME280;46212;50.258;19.062;2023-03-03T06:18:01;98795.72;;;-1.13;86.40
53340;BME280;46212;50.258;19.062;2023-03-03T06:20:26;98802.81;;;-0.98;86.38
53340;BME280;46212;50.258;19.062;2023-03-03T06:22:52;98769.78;;;-1.14;85.85
53340;BME280;46212;50.258;19.062;2023-03-03T06:25:17;98783.03;;;-1.05;85.51
53340;BME280;46212;50.258;19.062;2023-03-03T06:27:43;98792.19;;;-1.17;86.41
53340;BME280;46212;50.258;19.062;2023-03-03T06:30:09;98792.19;;;-0.70;85.73
53340;BME280;46212;50.258;19.062;2023-03-03T06:32:34;98774.50;;;-1.04;85.11
53340;BME280;46212;50.258;19.062;2023-03-03T06:35:00;98771.78;;;-1.04;85.62
53340;BME280;46212;50.258;19.062;2023-03-03T06:37:25;98784.38;;;-0.82;86.22
53340;BME280;46212;50.258;19.062;2023-03-03T06:39:51;98782.78;;;-0.32;83.81
53340;BME280;46212;50.258;19.062;2023-03-03T06:42:17;98776.22;;;-0.27;82.13
53340;BME280;46212;50.258;19.062;2023-03-03T06:44:43;98785.53;;;-0.25;81.87
53340;BME280;46212;50.258;19.062;2023-03-03T06:47:09;98787.16;;;-0.13;80.80
53340;BME280;46212;50.258;19.062;2023-03-03T06:49:34;98798.66;;;-0.34;80.78
53340;BME280;46212;50.258;19.062;2023-03-03T06:52:01;98806.69;;;-0.51;81.84
53340;BME280;46212;50.258;19.062;2023-03-03T06:54:29;98782.44;;;-0.81;82.52
53340;BME280;46212;50.258;19.062;2023-03-03T06:57:00;98818.97;;;-0.68;81.79
53340;BME280;46212;50.258;19.062;2023-03-03T06:59:32;98809.06;;;-0.94;82.26
53340;BME280;46212;50.258;19.062;2023-03-03T07:01:57;98789.44;;;-0.80;82.35
53340;BME280;46212;50.258;19.062;2023-03-03T07:04:32;98801.06;;;-0.80;82.08
53340;BME280;46212;50.258;19.062;2023-03-03T07:07:30;98811.25;;;-0.63;81.79
53340;BME280;46212;50.258;19.062;2023-03-03T07:09:56;98814.69;;;-0.69;81.53
53340;BME280;46212;50.258;19.062;2023-03-03T07:12:25;98817.41;;;-0.69;82.18
53340;BME280;46212;50.258;19.062;2023-03-03T07:17:57;98772.31;;;-0.88;82.17
53340;BME280;46212;50.258;19.062;2023-03-03T07:20:37;98800.94;;;-0.43;80.98
53340;BME280;46212;50.258;19.062;2023-03-03T07:23:20;98810.09;;;-0.62;81.15
53340;BME280;46212;50.258;19.062;2023-03-03T07:25:47;98805.97;;;-0.45;80.32
53340;BME280;46212;50.258;19.062;2023-03-03T07:28:20;98815.81;;;-0.16;80.04
53340;BME280;46212;50.258;19.062;2023-03-03T07:30:47;98814.00;;;0.03;78.38
53340;BME280;46212;50.258;19.062;2023-03-03T07:33:26;98828.81;;;0.16;78.19
53340;BME280;46212;50.258;19.062;2023-03-03T07:35:54;98834.91;;;-0.02;78.49
53340;BME280;46212;50.258;19.062;2023-03-03T07:38:34;98833.53;;;-0.36;80.62
53340;BME280;46212;50.258;19.062;2023-03-03T07:41:03;98825.94;;;-0.09;79.40
53340;BME280;46212;50.258;19.062;2023-03-03T07:46:39;98805.56;;;0.22;79.41
53340;BME280;46212;50.258;19.062;2023-03-03T07:49:35;98809.50;;;0.45;79.32
53340;BME280;46212;50.258;19.062;2023-03-03T07:54:44;98808.25;;;0.18;78.86
53340;BME280;46212;50.258;19.062;2023-03-03T07:59:37;98858.81;;;0.51;78.02
53340;BME280;46212;50.258;19.062;2023-03-03T08:02:06;98852.50;;;0.29;79.02
53340;BME280;46212;50.258;19.062;2023-03-03T08:04:41;98853.97;;;0.09;79.56
53340;BME280;46212;50.258;19.062;2023-03-03T08:07:21;98840.31;;;-0.05;80.73
53340;BME280;46212;50.258;19.062;2023-03-03T08:10:07;98834.97;;;-0.52;81.61
53340;BME280;46212;50.258;19.062;2023-03-03T08:12:41;98842.94;;;-0.23;82.75
53340;BME280;46212;50.258;19.062;2023-03-03T08:17:38;98815.59;;;0.18;80.28
53340;BME280;46212;50.258;19.062;2023-03-03T08:23:01;98815.78;;;-0.23;80.42
53340;BME280;46212;50.258;19.062;2023-03-03T08:25:26;98833.31;;;-0.06;81.51
53340;BME280;46212;50.258;19.062;2023-03-03T08:27:51;98817.19;;;0.19;80.78
53340;BME280;46212;50.258;19.062;2023-03-03T08:30:17;98815.94;;;0.02;80.25
53340;BME280;46212;50.258;19.062;2023-03-03T08:32:42;98841.94;;;0.03;81.50
53340;BME280;46212;50.258;19.062;2023-03-03T08:35:08;98839.09;;;-0.69;83.79
53340;BME280;46212;50.258;19.062;2023-03-03T08:37:33;98843.25;;;-0.31;83.65
53340;BME280;46212;50.258;19.062;2023-03-03T08:39:59;98841.84;;;-0.66;83.67
53340;BME280;46212;50.258;19.062;2023-03-03T08:42:24;98867.38;;;-0.23;83.92
53340;BME280;46212;50.258;19.062;2023-03-03T08:44:50;98867.81;;;-0.10;83.19
53340;BME280;46212;50.258;19.062;2023-03-03T08:47:15;98866.09;;;0.29;82.30
53340;BME280;46212;50.258;19.062;2023-03-03T08:49:41;98874.25;;;0.29;81.04
53340;BME280;46212;50.258;19.062;2023-03-03T08:52:06;98855.78;;;-0.13;82.71
53340;BME280;46212;50.258;19.062;2023-03-03T08:54:31;98853.44;;;-0.14;83.86
53340;BME280;46212;50.258;19.062;2023-03-03T08:56:57;98854.28;;;-0.03;84.13
53340;BME280;46212;50.258;19.062;2023-03-03T08:59:22;98838.75;;;-0.06;84.29
53340;BME280;46212;50.258;19.062;2023-03-03T09:01:48;98853.44;;;-0.14;84.90
53340;BME280;46212;50.258;19.062;2023-03-03T09:04:13;98846.28;;;-0.40;86.44
53340;BME280;46212;50.258;19.062;2023-03-03T09:06:39;98839.97;;;0.00;85.88
53340;BME280;46212;50.258;19.062;2023-03-03T09:09:05;98835.78;;;0.17;84.80
53340;BME280;46212;50.258;19.062;2023-03-03T09:11:30;98844.19;;;-0.03;85.16
53340;BME280;46212;50.258;19.062;2023-03-03T09:14:13;98819.91;;;-0.43;86.90
53340;BME280;46212;50.258;19.062;2023-03-03T09:16:50;98823.72;;;0.11;86.76
53340;BME280;46212;50.258;19.062;2023-03-03T09:19:32;98844.44;;;0.43;85.28
53340;BME280;46212;50.258;19.062;2023-03-03T09:22:16;98838.94;;;0.33;84.34
53340;BME280;46212;50.258;19.062;2023-03-03T09:24:42;98823.69;;;0.07;84.77
53340;BME280;46212;50.258;19.062;2023-03-03T09:27:17;98825.47;;;-0.22;86.49
53340;BME280;46212;50.258;19.062;2023-03-03T09:29:44;98812.94;;;-0.44;87.93
53340;BME280;46212;50.258;19.062;2023-03-03T09:32:23;98838.72;;;-0.13;87.42
53340;BME280;46212;50.258;19.062;2023-03-03T09:34:51;98809.78;;;-0.49;88.21
53340;BME280;46212;50.258;19.062;2023-03-03T09:39:41;98815.75;;;-0.30;88.52
53340;BME280;46212;50.258;19.062;2023-03-03T09:48:24;98826.31;;;0.90;83.78
53340;BME280;46212;50.258;19.062;2023-03-03T09:54:03;98855.41;;;0.86;82.56
53340;BME280;46212;50.258;19.062;2023-03-03T09:56:46;98856.19;;;0.72;83.72
53340;BME280;46212;50.258;19.062;2023-03-03T10:02:34;98842.13;;;0.49;84.69
53340;BME280;46212;50.258;19.062;2023-03-03T10:10:49;98827.31;;;0.36;84.67
53340;BME280;46212;50.258;19.062;2023-03-03T10:16:32;98849.19;;;0.71;84.10
53340;BME280;46212;50.258;19.062;2023-03-03T10:19:10;98856.53;;;0.60;83.61
53340;BME280;46212;50.258;19.062;2023-03-03T10:22:05;98869.25;;;0.42;84.07
53340;BME280;46212;50.258;19.062;2023-03-03T10:29:59;98871.63;;;0.50;85.00
53340;BME280;46212;50.258;19.062;2023-03-03T10:32:42;98862.38;;;0.66;84.52
53340;BME280;46212;50.258;19.062;2023-03-03T10:35:38;98875.22;;;0.76;84.35
53340;BME280;46212;50.258;19.062;2023-03-03T10:38:24;98872.13;;;0.81;83.47
53340;BME280;46212;50.258;19.062;2023-03-03T10:49:38;98857.00;;;0.90;82.33
53340;BME280;46212;50.258;19.062;2023-03-03T10:52:29;98868.25;;;0.89;82.91
53340;BME280;46212;50.258;19.062;2023-03-03T11:06:15;98864.81;;;1.10;82.07
53340;BME280;46212;50.258;19.062;2023-03-03T11:08:53;98864.44;;;1.36;81.39
53340;BME280;46212;50.258;19.062;2023-03-03T11:16:44;98860.53;;;1.33;81.06
53340;BME280;46212;50.258;19.062;2023-03-03T11:22:02;98859.00;;;1.32;80.82
53340;BME280;46212;50.258;19.062;2023-03-03T11:24:56;98860.94;;;1.53;79.99
53340;BME280;46212;50.258;19.062;2023-03-03T11:27:49;98851.97;;;1.03;81.52
53340;BME280;46212;50.258;19.062;2023-03-03T11:33:11;98862.50;;;1.22;81.72
53340;BME280;46212;50.258;19.062;2023-03-03T11:35:45;98849.69;;;1.54;79.55
53340;BME280;46212;50.258;19.062;2023-03-03T11:38:26;98856.97;;;0.83;80.74
53340;BME280;46212;50.258;19.062;2023-03-03T11:43:42;98843.25;;;0.44;83.68
53340;BME280;46212;50.258;19.062;2023-03-03T11:46:13;98844.91;;;0.70;82.83
53340;BME280;46212;50.258;19.062;2023-03-03T11:48:59;98849.63;;;0.91;82.00
53340;BME280;46212;50.258;19.062;2023-03-03T11:51:36;98853.16;;;1.34;80.87
53340;BME280;46212;50.258;19.062;2023-03-03T11:56:49;98841.09;;;0.99;81.60
53340;BME280;46212;50.258;19.062;2023-03-03T11:59:40;98848.50;;;1.17;81.25
53340;BME280;46212;50.258;19.062;2023-03-03T12:02:13;98863.22;;;1.05;81.39
53340;BME280;46212;50.258;19.062;2023-03-03T12:04:43;98846.56;;;1.28;80.94
53340;BME280;46212;50.258;19.062;2023-03-03T12:07:48;98852.41;;;1.58;79.23
53340;BME280;46212;50.258;19.062;2023-03-03T12:10:21;98853.19;;;1.58;80.09
53340;BME280;46212;50.258;19.062;2023-03-03T12:13:02;98849.25;;;1.21;81.63
53340;BME280;46212;50.258;19.062;2023-03-03T12:15:40;98839.97;;;1.29;81.97
53340;BME280;46212;50.258;19.062;2023-03-03T12:20:48;98846.94;;;0.98;82.18
53340;BME280;46212;50.258;19.062;2023-03-03T12:29:36;98840.69;;;0.94;83.59
53340;BME280;46212;50.258;19.062;2023-03-03T12:41:17;98803.00;;;1.59;80.31
53340;BME280;46212;50.258;19.062;2023-03-03T12:44:04;98828.69;;;1.27;80.63
53340;BME280;46212;50.258;19.062;2023-03-03T12:48:57;98802.63;;;0.94;82.80
53340;BME280;46212;50.258;19.062;2023-03-03T12:51:33;98800.28;;;1.21;81.40
53340;BME280;46212;50.258;19.062;2023-03-03T12:54:08;98819.34;;;1.63;80.05
53340;BME280;46212;50.258;19.062;2023-03-03T13:10:43;98807.50;;;2.19;72.55
53340;BME280;46212;50.258;19.062;2023-03-03T13:13:25;98794.88;;;1.45;76.76
53340;BME280;46212;50.258;19.062;2023-03-03T13:21:53;98804.19;;;1.55;77.11
53340;BME280;46212;50.258;19.062;2023-03-03T13:24:20;98809.22;;;1.71;77.03
53340;BME280;46212;50.258;19.062;2023-03-03T13:27:14;98817.66;;;2.15;74.75
53340;BME280;46212;50.258;19.062;2023-03-03T13:30:00;98815.44;;;1.71;76.29
53340;BME280;46212;50.258;19.062;2023-03-03T13:32:33;98804.19;;;1.16;77.43
53340;BME280;46212;50.258;19.062;2023-03-03T13:37:56;98818.16;;;1.11;79.53
53340;BME280;46212;50.258;19.062;2023-03-03T13:40:26;98788.63;;;1.55;78.26
53340;BME280;46212;50.258;19.062;2023-03-03T13:43:04;98805.75;;;1.35;77.17
53340;BME280;46212;50.258;19.062;2023-03-03T13:45:54;98808.09;;;1.29;78.35
53340;BME280;46212;50.258;19.062;2023-03-03T13:54:09;98810.78;;;1.43;77.77
53340;BME280;46212;50.258;19.062;2023-03-03T14:04:56;98809.25;;;1.39;77.75
53340;BME280;46212;50.258;19.062;2023-03-03T14:07:35;98798.75;;;1.58;77.21
53340;BME280;46212;50.258;19.062;2023-03-03T14:10:13;98803.41;;;1.51;77.03
53340;BME280;46212;50.258;19.062;2023-03-03T14:12:48;98802.25;;;1.34;77.08
53340;BME280;46212;50.258;19.062;2023-03-03T14:15:33;98797.97;;;1.37;77.56
53340;BME280;46212;50.258;19.062;2023-03-03T14:18:23;98778.53;;;1.21;76.87
53340;BME280;46212;50.258;19.062;2023-03-03T14:20:52;98785.16;;;1.23;76.85
53340;BME280;46212;50.258;19.062;2023-03-03T14:23:24;98799.91;;;1.08;76.97
53340;BME280;46212;50.258;19.062;2023-03-03T14:25:53;98797.59;;;1.45;77.67
53340;BME280;46212;50.258;19.062;2023-03-03T14:28:22;98795.97;;;1.76;76.53
53340;BME280;46212;50.258;19.062;2023-03-03T14:30:48;98799.84;;;1.96;74.76
53340;BME280;46212;50.258;19.062;2023-03-03T14:33:19;98778.34;;;2.16;72.69
53340;BME280;46212;50.258;19.062;2023-03-03T14:38:35;98779.91;;;2.13;72.65
53340;BME280;46212;50.258;19.062;2023-03-03T14:43:38;98791.22;;;2.16;73.78
53340;BME280;46212;50.258;19.062;2023-03-03T14:48:57;98785.88;;;1.77;73.84
53340;BME280;46212;50.258;19.062;2023-03-03T14:51:43;98768.03;;;1.51;74.31
53340;BME280;46212;50.258;19.062;2023-03-03T14:54:36;98789.44;;;1.45;75.17
53340;BME280;46212;50.258;19.062;2023-03-03T14:57:12;98797.59;;;1.06;76.68
53340;BME280;46212;50.258;19.062;2023-03-03T14:59:39;98796.41;;;1.57;75.39
53340;BME280;46212;50.258;19.062;2023-03-03T15:04:45;98806.13;;;0.98;77.54
53340;BME280;46212;50.258;19.062;2023-03-03T15:09:55;98775.06;;;1.10;76.24
53340;BME280;46212;50.258;19.062;2023-03-03T15:12:24;98796.03;;;0.88;76.94
53340;BME280;46212;50.258;19.062;2023-03-03T15:20:08;98785.16;;;1.05;77.26
53340;BME280;46212;50.258;19.062;2023-03-03T15:22:59;98785.13;;;0.98;77.48
53340;BME280;46212;50.258;19.062;2023-03-03T15:25:35;98781.66;;;1.16;77.41
53340;BME280;46212;50.258;19.062;2023-03-03T15:30:45;98782.44;;;0.91;78.15
53340;BME280;46212;50.258;19.062;2023-03-03T15:33:18;98757.53;;;0.50;78.53
53340;BME280;46212;50.258;19.062;2023-03-03T15:35:50;98770.34;;;0.71;78.41
53340;BME280;46212;50.258;19.062;2023-03-03T15:41:22;98773.44;;;0.59;79.46
53340;BME280;46212;50.258;19.062;2023-03-03T15:44:10;98780.09;;;0.76;79.21
53340;BME280;46212;50.258;19.062;2023-03-03T15:54:35;98782.34;;;0.52;80.90
53340;BME280;46212;50.258;19.062;2023-03-03T16:02:09;98763.75;;;0.65;78.40
53340;BME280;46212;50.258;19.062;2023-03-03T16:04:46;98765.66;;;0.47;79.43
53340;BME280;46212;50.258;19.062;2023-03-03T16:10:56;98797.59;;;1.06;78.45
53340;BME280;46212;50.258;19.062;2023-03-03T16:27:15;98785.84;;;0.49;80.69
53340;BME280;46212;50.258;19.062;2023-03-03T16:30:05;98782.34;;;0.52;80.78
53340;BME280;46212;50.258;19.062;2023-03-03T16:32:52;98790.47;;;0.35;81.10
53340;BME280;46212;50.258;19.062;2023-03-03T16:35:25;98778.53;;;0.78;80.08
53340;BME280;46212;50.258;19.062;2023-03-03T16:38:00;98769.16;;;0.62;80.30
53340;BME280;46212;50.258;19.062;2023-03-03T16:40:34;98781.97;;;0.61;80.95
53340;BME280;46212;50.258;19.062;2023-03-03T16:43:09;98792.78;;;0.33;82.35
53340;BME280;46212;50.258;19.062;2023-03-03T16:45:38;98770.22;;;0.18;82.77